Alire, New Mexico
Current Conditions -  °F | °C
As of 7:35 PM on Saturday 25 Oct 2014 (Local Time) from KLAM Reporting Station
Clear Clear  
Wind Chill: 64°   Ceiling: Unl
Heat Index: 64°   Visibility: 10mi
Dew Point: 26°   Wind: 9mph
Humidity: 23%   Direction: 270°W
Pressure: 30.28"   Gusts: NA
Location:  36.4765°N, 106.58°W
Report Text: KLAM 260135Z AUTO 27008KT 10SM CLR 18/M03 A3028 RMK AO2 T01791035
Loading
Personal Weather Stations






























Interactive Weather Map
Tropical Storm Tracking
New forecast layout! Learn more

10-Day Weather Forecast

Advertisements
Track Severe Weather on mobile